sensor_id;sensor_type;location;lat;lon;timestamp;P1;durP1;ratioP1;P2;durP2;ratioP2
6306;SDS011;3186;54.062;9.962;2024-03-08T00:01:35;28.67;;;16.07;;
6306;SDS011;3186;54.062;9.962;2024-03-08T00:04:01;23.30;;;14.77;;
6306;SDS011;3186;54.062;9.962;2024-03-08T00:06:26;25.00;;;15.43;;
6306;SDS011;3186;54.062;9.962;2024-03-08T00:08:52;27.20;;;14.73;;
6306;SDS011;3186;54.062;9.962;2024-03-08T00:11:18;23.77;;;14.97;;
6306;SDS011;3186;54.062;9.962;2024-03-08T00:13:43;26.80;;;15.37;;
6306;SDS011;3186;54.062;9.962;2024-03-08T00:16:10;19.87;;;13.33;;
6306;SDS011;3186;54.062;9.962;2024-03-08T00:18:35;21.67;;;14.40;;
6306;SDS011;3186;54.062;9.962;2024-03-08T00:21:01;22.27;;;14.30;;
6306;SDS011;3186;54.062;9.962;2024-03-08T00:23:27;22.13;;;14.93;;
6306;SDS011;3186;54.062;9.962;2024-03-08T00:25:53;19.07;;;13.50;;
6306;SDS011;3186;54.062;9.962;2024-03-08T00:28:20;19.33;;;12.50;;
6306;SDS011;3186;54.062;9.962;2024-03-08T00:30:45;16.57;;;12.33;;
6306;SDS011;3186;54.062;9.962;2024-03-08T00:33:11;18.63;;;12.30;;
6306;SDS011;3186;54.062;9.962;2024-03-08T00:35:37;16.50;;;12.53;;
6306;SDS011;3186;54.062;9.962;2024-03-08T00:38:03;19.63;;;12.73;;
6306;SDS011;3186;54.062;9.962;2024-03-08T00:40:28;19.20;;;12.60;;
6306;SDS011;3186;54.062;9.962;2024-03-08T00:42:54;15.70;;;12.17;;
6306;SDS011;3186;54.062;9.962;2024-03-08T00:45:19;18.93;;;12.70;;
6306;SDS011;3186;54.062;9.962;2024-03-08T00:47:45;21.77;;;12.23;;
6306;SDS011;3186;54.062;9.962;2024-03-08T00:50:11;17.43;;;11.67;;
6306;SDS011;3186;54.062;9.962;2024-03-08T00:52:37;20.70;;;12.77;;
6306;SDS011;3186;54.062;9.962;2024-03-08T00:55:03;19.13;;;12.17;;
6306;SDS011;3186;54.062;9.962;2024-03-08T00:57:29;16.27;;;11.63;;
6306;SDS011;3186;54.062;9.962;2024-03-08T00:59:55;16.53;;;11.47;;
6306;SDS011;3186;54.062;9.962;2024-03-08T01:02:21;27.70;;;12.37;;
6306;SDS011;3186;54.062;9.962;2024-03-08T01:04:48;18.87;;;11.90;;
6306;SDS011;3186;54.062;9.962;2024-03-08T01:07:14;17.00;;;11.33;;
6306;SDS011;3186;54.062;9.962;2024-03-08T01:09:40;16.03;;;11.43;;
6306;SDS011;3186;54.062;9.962;2024-03-08T01:12:06;22.40;;;12.17;;
6306;SDS011;3186;54.062;9.962;2024-03-08T01:14:32;21.37;;;12.13;;
6306;SDS011;3186;54.062;9.962;2024-03-08T01:16:58;19.23;;;11.93;;
6306;SDS011;3186;54.062;9.962;2024-03-08T01:19:24;19.77;;;11.97;;
6306;SDS011;3186;54.062;9.962;2024-03-08T01:21:50;16.17;;;10.67;;
6306;SDS011;3186;54.062;9.962;2024-03-08T01:24:16;16.03;;;12.00;;
6306;SDS011;3186;54.062;9.962;2024-03-08T01:26:42;16.97;;;12.10;;
6306;SDS011;3186;54.062;9.962;2024-03-08T01:29:07;17.53;;;12.00;;
6306;SDS011;3186;54.062;9.962;2024-03-08T01:31:33;15.90;;;10.87;;
6306;SDS011;3186;54.062;9.962;2024-03-08T01:33:59;18.20;;;11.27;;
6306;SDS011;3186;54.062;9.962;2024-03-08T01:36:24;16.00;;;11.53;;
6306;SDS011;3186;54.062;9.962;2024-03-08T01:38:50;17.53;;;11.80;;
6306;SDS011;3186;54.062;9.962;2024-03-08T01:41:16;15.90;;;10.57;;
6306;SDS011;3186;54.062;9.962;2024-03-08T01:43:43;20.10;;;11.37;;
6306;SDS011;3186;54.062;9.962;2024-03-08T01:46:10;19.23;;;12.10;;
6306;SDS011;3186;54.062;9.962;2024-03-08T01:48:41;16.40;;;11.43;;
6306;SDS011;3186;54.062;9.962;2024-03-08T01:51:07;18.30;;;11.17;;
6306;SDS011;3186;54.062;9.962;2024-03-08T01:53:33;17.67;;;12.07;;
6306;SDS011;3186;54.062;9.962;2024-03-08T01:56:00;21.07;;;11.53;;
6306;SDS011;3186;54.062;9.962;2024-03-08T01:58:27;16.17;;;11.27;;
6306;SDS011;3186;54.062;9.962;2024-03-08T02:00:54;16.03;;;11.00;;
6306;SDS011;3186;54.062;9.962;2024-03-08T02:03:22;17.03;;;12.03;;
6306;SDS011;3186;54.062;9.962;2024-03-08T02:05:47;20.93;;;12.30;;
6306;SDS011;3186;54.062;9.962;2024-03-08T02:08:14;21.00;;;12.07;;
6306;SDS011;3186;54.062;9.962;2024-03-08T02:10:41;20.07;;;11.53;;
6306;SDS011;3186;54.062;9.962;2024-03-08T02:13:08;18.50;;;12.40;;
6306;SDS011;3186;54.062;9.962;2024-03-08T02:18:20;18.67;;;11.53;;
6306;SDS011;3186;54.062;9.962;2024-03-08T02:20:47;18.50;;;11.33;;
6306;SDS011;3186;54.062;9.962;2024-03-08T02:23:14;20.30;;;12.47;;
6306;SDS011;3186;54.062;9.962;2024-03-08T02:25:40;20.90;;;11.47;;
6306;SDS011;3186;54.062;9.962;2024-03-08T02:28:07;16.47;;;12.00;;
6306;SDS011;3186;54.062;9.962;2024-03-08T02:30:36;17.87;;;12.33;;
6306;SDS011;3186;54.062;9.962;2024-03-08T02:33:02;20.23;;;12.30;;
6306;SDS011;3186;54.062;9.962;2024-03-08T02:35:28;20.40;;;12.47;;
6306;SDS011;3186;54.062;9.962;2024-03-08T02:37:55;20.97;;;12.50;;
6306;SDS011;3186;54.062;9.962;2024-03-08T02:40:20;18.70;;;12.80;;
6306;SDS011;3186;54.062;9.962;2024-03-08T02:42:47;17.90;;;12.50;;
6306;SDS011;3186;54.062;9.962;2024-03-08T02:45:12;19.87;;;12.93;;
6306;SDS011;3186;54.062;9.962;2024-03-08T02:47:38;22.17;;;14.10;;
6306;SDS011;3186;54.062;9.962;2024-03-08T02:50:05;24.83;;;13.10;;
6306;SDS011;3186;54.062;9.962;2024-03-08T02:52:33;17.97;;;12.93;;
6306;SDS011;3186;54.062;9.962;2024-03-08T02:55:00;22.80;;;14.00;;
6306;SDS011;3186;54.062;9.962;2024-03-08T02:57:26;21.50;;;13.00;;
6306;SDS011;3186;54.062;9.962;2024-03-08T02:59:53;21.23;;;12.83;;
6306;SDS011;3186;54.062;9.962;2024-03-08T03:02:19;22.33;;;13.57;;
6306;SDS011;3186;54.062;9.962;2024-03-08T03:04:45;24.37;;;14.23;;
6306;SDS011;3186;54.062;9.962;2024-03-08T03:07:10;22.83;;;14.37;;
6306;SDS011;3186;54.062;9.962;2024-03-08T03:09:36;22.90;;;14.37;;
6306;SDS011;3186;54.062;9.962;2024-03-08T03:12:02;27.73;;;15.40;;
6306;SDS011;3186;54.062;9.962;2024-03-08T03:14:27;26.67;;;14.93;;
6306;SDS011;3186;54.062;9.962;2024-03-08T03:16:53;23.17;;;14.83;;
6306;SDS011;3186;54.062;9.962;2024-03-08T03:19:19;29.87;;;17.00;;
6306;SDS011;3186;54.062;9.962;2024-03-08T03:21:45;24.50;;;15.13;;
6306;SDS011;3186;54.062;9.962;2024-03-08T03:24:12;23.90;;;16.37;;
6306;SDS011;3186;54.062;9.962;2024-03-08T03:26:41;25.17;;;17.67;;
6306;SDS011;3186;54.062;9.962;2024-03-08T03:29:08;28.47;;;17.37;;
6306;SDS011;3186;54.062;9.962;2024-03-08T03:31:36;29.20;;;17.87;;
6306;SDS011;3186;54.062;9.962;2024-03-08T03:34:02;30.47;;;18.73;;
6306;SDS011;3186;54.062;9.962;2024-03-08T03:36:29;31.73;;;18.40;;
6306;SDS011;3186;54.062;9.962;2024-03-08T03:38:55;31.90;;;20.07;;
6306;SDS011;3186;54.062;9.962;2024-03-08T03:41:35;32.73;;;20.93;;
6306;SDS011;3186;54.062;9.962;2024-03-08T03:44:01;30.60;;;19.53;;
6306;SDS011;3186;54.062;9.962;2024-03-08T03:46:27;28.77;;;19.77;;
6306;SDS011;3186;54.062;9.962;2024-03-08T03:48:56;29.17;;;19.73;;
6306;SDS011;3186;54.062;9.962;2024-03-08T03:51:21;32.40;;;21.33;;
6306;SDS011;3186;54.062;9.962;2024-03-08T03:53:47;34.23;;;21.93;;
6306;SDS011;3186;54.062;9.962;2024-03-08T03:56:13;30.50;;;19.87;;
6306;SDS011;3186;54.062;9.962;2024-03-08T03:58:39;31.93;;;20.40;;
6306;SDS011;3186;54.062;9.962;2024-03-08T04:01:05;33.00;;;21.33;;
6306;SDS011;3186;54.062;9.962;2024-03-08T04:03:30;33.33;;;21.23;;
6306;SDS011;3186;54.062;9.962;2024-03-08T04:05:56;32.47;;;21.40;;
6306;SDS011;3186;54.062;9.962;2024-03-08T04:08:22;35.97;;;21.03;;
6306;SDS011;3186;54.062;9.962;2024-03-08T04:10:51;31.53;;;20.07;;
6306;SDS011;3186;54.062;9.962;2024-03-08T04:13:17;30.77;;;20.20;;
6306;SDS011;3186;54.062;9.962;2024-03-08T04:15:42;29.90;;;19.03;;
6306;SDS011;3186;54.062;9.962;2024-03-08T04:18:12;26.07;;;19.47;;
6306;SDS011;3186;54.062;9.962;2024-03-08T04:20:38;32.07;;;20.73;;
6306;SDS011;3186;54.062;9.962;2024-03-08T04:23:05;31.17;;;19.03;;
6306;SDS011;3186;54.062;9.962;2024-03-08T04:25:31;28.07;;;19.13;;
6306;SDS011;3186;54.062;9.962;2024-03-08T04:27:57;35.40;;;19.63;;
6306;SDS011;3186;54.062;9.962;2024-03-08T04:30:22;32.30;;;19.57;;
6306;SDS011;3186;54.062;9.962;2024-03-08T04:32:49;26.93;;;18.13;;
6306;SDS011;3186;54.062;9.962;2024-03-08T04:35:16;32.17;;;19.10;;
6306;SDS011;3186;54.062;9.962;2024-03-08T04:37:41;27.00;;;17.93;;
6306;SDS011;3186;54.062;9.962;2024-03-08T04:40:07;28.07;;;18.37;;
6306;SDS011;3186;54.062;9.962;2024-03-08T04:42:33;26.20;;;17.73;;
6306;SDS011;3186;54.062;9.962;2024-03-08T04:44:59;28.50;;;18.30;;
6306;SDS011;3186;54.062;9.962;2024-03-08T04:47:25;26.80;;;18.90;;
6306;SDS011;3186;54.062;9.962;2024-03-08T04:49:51;26.20;;;19.60;;
6306;SDS011;3186;54.062;9.962;2024-03-08T04:52:17;28.70;;;18.10;;
6306;SDS011;3186;54.062;9.962;2024-03-08T04:54:43;29.33;;;18.87;;
6306;SDS011;3186;54.062;9.962;2024-03-08T04:57:10;25.47;;;18.03;;
6306;SDS011;3186;54.062;9.962;2024-03-08T04:59:36;29.50;;;19.73;;
6306;SDS011;3186;54.062;9.962;2024-03-08T05:02:02;34.00;;;19.90;;
6306;SDS011;3186;54.062;9.962;2024-03-08T05:04:28;28.03;;;19.27;;
6306;SDS011;3186;54.062;9.962;2024-03-08T05:06:54;27.77;;;19.07;;
6306;SDS011;3186;54.062;9.962;2024-03-08T05:09:20;32.93;;;20.40;;
6306;SDS011;3186;54.062;9.962;2024-03-08T05:11:46;29.90;;;19.33;;
6306;SDS011;3186;54.062;9.962;2024-03-08T05:14:12;29.67;;;19.07;;
6306;SDS011;3186;54.062;9.962;2024-03-08T05:16:43;27.00;;;19.27;;
6306;SDS011;3186;54.062;9.962;2024-03-08T05:19:13;33.60;;;20.87;;
6306;SDS011;3186;54.062;9.962;2024-03-08T05:21:43;31.07;;;20.67;;
6306;SDS011;3186;54.062;9.962;2024-03-08T05:24:09;32.60;;;19.40;;
6306;SDS011;3186;54.062;9.962;2024-03-08T05:26:35;31.33;;;19.37;;
6306;SDS011;3186;54.062;9.962;2024-03-08T05:29:02;27.30;;;19.07;;
6306;SDS011;3186;54.062;9.962;2024-03-08T05:31:28;30.90;;;21.30;;
6306;SDS011;3186;54.062;9.962;2024-03-08T05:33:56;32.80;;;20.83;;
6306;SDS011;3186;54.062;9.962;2024-03-08T05:36:22;33.23;;;20.80;;
6306;SDS011;3186;54.062;9.962;2024-03-08T05:38:47;33.30;;;20.97;;
6306;SDS011;3186;54.062;9.962;2024-03-08T05:41:15;29.13;;;20.53;;
6306;SDS011;3186;54.062;9.962;2024-03-08T05:43:42;37.83;;;21.33;;
6306;SDS011;3186;54.062;9.962;2024-03-08T05:46:08;30.87;;;20.07;;
6306;SDS011;3186;54.062;9.962;2024-03-08T05:48:36;29.83;;;20.17;;
6306;SDS011;3186;54.062;9.962;2024-03-08T05:51:02;29.23;;;19.17;;
6306;SDS011;3186;54.062;9.962;2024-03-08T05:53:28;32.77;;;21.17;;
6306;SDS011;3186;54.062;9.962;2024-03-08T05:55:57;32.53;;;20.40;;
6306;SDS011;3186;54.062;9.962;2024-03-08T05:58:23;35.20;;;20.90;;
6306;SDS011;3186;54.062;9.962;2024-03-08T06:00:49;31.33;;;20.27;;
6306;SDS011;3186;54.062;9.962;2024-03-08T06:03:15;32.97;;;21.70;;
6306;SDS011;3186;54.062;9.962;2024-03-08T06:05:40;31.07;;;20.37;;
6306;SDS011;3186;54.062;9.962;2024-03-08T06:08:07;31.57;;;20.87;;
6306;SDS011;3186;54.062;9.962;2024-03-08T06:10:33;34.83;;;21.67;;
6306;SDS011;3186;54.062;9.962;2024-03-08T06:12:58;35.87;;;22.73;;
6306;SDS011;3186;54.062;9.962;2024-03-08T06:15:25;37.47;;;20.80;;
6306;SDS011;3186;54.062;9.962;2024-03-08T06:17:50;33.33;;;21.80;;
6306;SDS011;3186;54.062;9.962;2024-03-08T06:20:18;32.63;;;21.30;;
6306;SDS011;3186;54.062;9.962;2024-03-08T06:22:43;31.57;;;21.43;;
6306;SDS011;3186;54.062;9.962;2024-03-08T06:25:13;33.87;;;22.30;;
6306;SDS011;3186;54.062;9.962;2024-03-08T06:27:39;33.27;;;21.70;;
6306;SDS011;3186;54.062;9.962;2024-03-08T06:30:06;32.23;;;22.07;;
6306;SDS011;3186;54.062;9.962;2024-03-08T06:32:32;36.40;;;23.00;;
6306;SDS011;3186;54.062;9.962;2024-03-08T06:35:01;31.10;;;20.17;;
6306;SDS011;3186;54.062;9.962;2024-03-08T06:37:27;37.10;;;21.70;;
6306;SDS011;3186;54.062;9.962;2024-03-08T06:39:53;36.43;;;22.17;;
6306;SDS011;3186;54.062;9.962;2024-03-08T06:42:20;34.73;;;21.10;;
6306;SDS011;3186;54.062;9.962;2024-03-08T06:44:46;31.77;;;20.77;;
6306;SDS011;3186;54.062;9.962;2024-03-08T06:47:15;37.30;;;21.63;;
6306;SDS011;3186;54.062;9.962;2024-03-08T06:49:41;35.07;;;21.57;;
6306;SDS011;3186;54.062;9.962;2024-03-08T06:52:09;32.03;;;21.10;;
6306;SDS011;3186;54.062;9.962;2024-03-08T06:54:35;32.03;;;21.87;;
6306;SDS011;3186;54.062;9.962;2024-03-08T06:57:01;31.43;;;21.20;;
6306;SDS011;3186;54.062;9.962;2024-03-08T06:59:31;32.83;;;21.13;;
6306;SDS011;3186;54.062;9.962;2024-03-08T07:01:57;35.70;;;22.10;;
6306;SDS011;3186;54.062;9.962;2024-03-08T07:04:24;37.63;;;22.47;;
6306;SDS011;3186;54.062;9.962;2024-03-08T07:06:54;30.67;;;22.43;;
6306;SDS011;3186;54.062;9.962;2024-03-08T07:09:19;36.77;;;20.93;;
6306;SDS011;3186;54.062;9.962;2024-03-08T07:11:45;37.17;;;23.47;;
6306;SDS011;3186;54.062;9.962;2024-03-08T07:14:11;37.80;;;22.43;;
6306;SDS011;3186;54.062;9.962;2024-03-08T07:16:40;35.87;;;23.23;;
6306;SDS011;3186;54.062;9.962;2024-03-08T07:19:06;34.67;;;21.67;;
6306;SDS011;3186;54.062;9.962;2024-03-08T07:21:32;40.73;;;22.67;;
6306;SDS011;3186;54.062;9.962;2024-03-08T07:23:58;34.90;;;21.97;;
6306;SDS011;3186;54.062;9.962;2024-03-08T07:26:26;40.47;;;24.37;;
6306;SDS011;3186;54.062;9.962;2024-03-08T07:28:52;31.77;;;21.30;;
6306;SDS011;3186;54.062;9.962;2024-03-08T07:31:20;39.27;;;23.93;;
6306;SDS011;3186;54.062;9.962;2024-03-08T07:34:03;39.77;;;24.20;;
6306;SDS011;3186;54.062;9.962;2024-03-08T07:36:33;38.33;;;21.77;;
6306;SDS011;3186;54.062;9.962;2024-03-08T07:38:59;34.30;;;22.70;;
6306;SDS011;3186;54.062;9.962;2024-03-08T07:41:25;31.87;;;21.90;;
6306;SDS011;3186;54.062;9.962;2024-03-08T07:43:51;34.47;;;22.07;;
6306;SDS011;3186;54.062;9.962;2024-03-08T07:46:17;30.53;;;22.53;;
6306;SDS011;3186;54.062;9.962;2024-03-08T07:48:43;36.60;;;23.27;;
6306;SDS011;3186;54.062;9.962;2024-03-08T07:51:10;32.53;;;22.83;;
6306;SDS011;3186;54.062;9.962;2024-03-08T07:53:37;33.63;;;21.83;;
6306;SDS011;3186;54.062;9.962;2024-03-08T07:56:03;31.13;;;21.07;;
6306;SDS011;3186;54.062;9.962;2024-03-08T07:58:32;32.57;;;21.40;;
6306;SDS011;3186;54.062;9.962;2024-03-08T08:00:57;34.07;;;21.53;;
6306;SDS011;3186;54.062;9.962;2024-03-08T08:03:23;33.00;;;21.73;;
6306;SDS011;3186;54.062;9.962;2024-03-08T08:05:49;32.07;;;22.13;;
6306;SDS011;3186;54.062;9.962;2024-03-08T08:08:14;36.23;;;22.67;;
6306;SDS011;3186;54.062;9.962;2024-03-08T08:10:40;31.63;;;21.50;;
6306;SDS011;3186;54.062;9.962;2024-03-08T08:13:07;34.47;;;23.17;;
6306;SDS011;3186;54.062;9.962;2024-03-08T08:15:32;35.70;;;22.83;;
6306;SDS011;3186;54.062;9.962;2024-03-08T08:18:01;36.00;;;22.70;;
6306;SDS011;3186;54.062;9.962;2024-03-08T08:20:30;34.53;;;23.73;;
6306;SDS011;3186;54.062;9.962;2024-03-08T08:22:56;36.23;;;24.53;;
6306;SDS011;3186;54.062;9.962;2024-03-08T08:25:24;35.23;;;23.00;;
6306;SDS011;3186;54.062;9.962;2024-03-08T08:27:49;35.90;;;23.90;;
6306;SDS011;3186;54.062;9.962;2024-03-08T08:30:15;32.73;;;23.30;;
6306;SDS011;3186;54.062;9.962;2024-03-08T08:32:41;34.17;;;23.70;;
6306;SDS011;3186;54.062;9.962;2024-03-08T08:35:09;33.97;;;22.43;;
6306;SDS011;3186;54.062;9.962;2024-03-08T08:37:40;36.20;;;25.23;;
6306;SDS011;3186;54.062;9.962;2024-03-08T08:40:06;40.40;;;25.27;;
6306;SDS011;3186;54.062;9.962;2024-03-08T08:42:39;34.00;;;23.93;;
6306;SDS011;3186;54.062;9.962;2024-03-08T08:45:05;37.10;;;24.30;;
6306;SDS011;3186;54.062;9.962;2024-03-08T08:47:37;38.47;;;24.77;;
6306;SDS011;3186;54.062;9.962;2024-03-08T08:50:03;34.33;;;24.93;;
6306;SDS011;3186;54.062;9.962;2024-03-08T08:52:33;39.07;;;25.33;;
6306;SDS011;3186;54.062;9.962;2024-03-08T08:54:59;41.40;;;24.87;;
6306;SDS011;3186;54.062;9.962;2024-03-08T08:57:25;41.10;;;25.03;;
6306;SDS011;3186;54.062;9.962;2024-03-08T08:59:52;37.93;;;24.33;;
6306;SDS011;3186;54.062;9.962;2024-03-08T09:02:17;37.30;;;24.97;;
6306;SDS011;3186;54.062;9.962;2024-03-08T09:04:46;36.77;;;24.27;;
6306;SDS011;3186;54.062;9.962;2024-03-08T09:07:13;38.10;;;24.63;;
6306;SDS011;3186;54.062;9.962;2024-03-08T09:09:39;39.50;;;25.60;;
6306;SDS011;3186;54.062;9.962;2024-03-08T09:12:04;38.67;;;24.20;;
6306;SDS011;3186;54.062;9.962;2024-03-08T09:14:30;40.17;;;26.63;;
6306;SDS011;3186;54.062;9.962;2024-03-08T09:16:56;41.87;;;26.57;;
6306;SDS011;3186;54.062;9.962;2024-03-08T09:19:21;39.87;;;25.70;;
6306;SDS011;3186;54.062;9.962;2024-03-08T09:21:50;37.77;;;25.47;;
6306;SDS011;3186;54.062;9.962;2024-03-08T09:24:16;39.70;;;26.20;;
6306;SDS011;3186;54.062;9.962;2024-03-08T09:26:42;43.10;;;27.60;;
6306;SDS011;3186;54.062;9.962;2024-03-08T09:29:08;44.17;;;27.60;;
6306;SDS011;3186;54.062;9.962;2024-03-08T09:31:35;43.30;;;26.43;;
6306;SDS011;3186;54.062;9.962;2024-03-08T09:34:03;47.03;;;28.27;;
6306;SDS011;3186;54.062;9.962;2024-03-08T09:36:28;45.27;;;27.07;;
6306;SDS011;3186;54.062;9.962;2024-03-08T09:38:55;38.87;;;26.03;;
6306;SDS011;3186;54.062;9.962;2024-03-08T09:41:20;45.80;;;27.50;;
6306;SDS011;3186;54.062;9.962;2024-03-08T09:43:46;41.53;;;27.23;;
6306;SDS011;3186;54.062;9.962;2024-03-08T09:46:12;45.67;;;28.60;;
6306;SDS011;3186;54.062;9.962;2024-03-08T09:48:39;46.97;;;28.73;;
6306;SDS011;3186;54.062;9.962;2024-03-08T09:51:06;44.83;;;26.47;;
6306;SDS011;3186;54.062;9.962;2024-03-08T09:53:33;46.17;;;26.87;;
6306;SDS011;3186;54.062;9.962;2024-03-08T09:56:00;44.03;;;29.77;;
6306;SDS011;3186;54.062;9.962;2024-03-08T09:58:28;35.53;;;24.87;;
6306;SDS011;3186;54.062;9.962;2024-03-08T10:01:17;42.43;;;26.20;;
6306;SDS011;3186;54.062;9.962;2024-03-08T10:03:43;45.60;;;26.37;;
6306;SDS011;3186;54.062;9.962;2024-03-08T10:06:09;41.23;;;25.93;;
6306;SDS011;3186;54.062;9.962;2024-03-08T10:08:35;42.83;;;28.07;;
6306;SDS011;3186;54.062;9.962;2024-03-08T10:11:01;40.17;;;26.83;;
6306;SDS011;3186;54.062;9.962;2024-03-08T10:13:27;37.23;;;25.83;;
6306;SDS011;3186;54.062;9.962;2024-03-08T10:15:53;41.33;;;27.93;;
6306;SDS011;3186;54.062;9.962;2024-03-08T10:18:19;43.60;;;25.77;;
6306;SDS011;3186;54.062;9.962;2024-03-08T10:20:46;43.60;;;26.83;;
6306;SDS011;3186;54.062;9.962;2024-03-08T10:23:28;41.20;;;24.80;;
6306;SDS011;3186;54.062;9.962;2024-03-08T10:25:55;45.50;;;26.67;;
6306;SDS011;3186;54.062;9.962;2024-03-08T10:28:23;43.93;;;25.77;;
6306;SDS011;3186;54.062;9.962;2024-03-08T10:30:50;46.37;;;28.27;;
6306;SDS011;3186;54.062;9.962;2024-03-08T10:33:15;44.43;;;26.13;;
6306;SDS011;3186;54.062;9.962;2024-03-08T10:35:41;45.23;;;28.20;;
6306;SDS011;3186;54.062;9.962;2024-03-08T10:38:07;46.77;;;27.17;;
6306;SDS011;3186;54.062;9.962;2024-03-08T10:40:38;47.10;;;26.83;;
6306;SDS011;3186;54.062;9.962;2024-03-08T10:43:05;40.10;;;26.53;;
6306;SDS011;3186;54.062;9.962;2024-03-08T10:45:41;39.63;;;26.33;;
6306;SDS011;3186;54.062;9.962;2024-03-08T10:50:56;43.17;;;26.47;;
6306;SDS011;3186;54.062;9.962;2024-03-08T10:53:23;42.53;;;26.60;;
6306;SDS011;3186;54.062;9.962;2024-03-08T10:55:52;43.50;;;25.67;;
6306;SDS011;3186;54.062;9.962;2024-03-08T10:58:22;42.07;;;25.30;;
6306;SDS011;3186;54.062;9.962;2024-03-08T11:00:52;46.20;;;26.33;;
6306;SDS011;3186;54.062;9.962;2024-03-08T11:06:16;39.57;;;25.77;;
6306;SDS011;3186;54.062;9.962;2024-03-08T11:08:48;39.17;;;24.00;;
6306;SDS011;3186;54.062;9.962;2024-03-08T11:13:57;39.83;;;24.73;;
6306;SDS011;3186;54.062;9.962;2024-03-08T11:18:57;43.10;;;25.77;;
6306;SDS011;3186;54.062;9.962;2024-03-08T11:21:32;44.10;;;25.30;;
6306;SDS011;3186;54.062;9.962;2024-03-08T11:24:01;41.00;;;24.17;;
6306;SDS011;3186;54.062;9.962;2024-03-08T11:26:33;36.83;;;23.80;;
6306;SDS011;3186;54.062;9.962;2024-03-08T11:32:08;40.77;;;23.13;;
6306;SDS011;3186;54.062;9.962;2024-03-08T11:34:40;38.70;;;23.80;;
6306;SDS011;3186;54.062;9.962;2024-03-08T11:37:15;30.40;;;21.27;;
6306;SDS011;3186;54.062;9.962;2024-03-08T11:39:49;35.77;;;22.43;;
6306;SDS011;3186;54.062;9.962;2024-03-08T11:42:19;37.40;;;22.77;;
6306;SDS011;3186;54.062;9.962;2024-03-08T11:44:46;36.07;;;21.37;;
6306;SDS011;3186;54.062;9.962;2024-03-08T11:47:12;34.17;;;22.43;;
6306;SDS011;3186;54.062;9.962;2024-03-08T11:49:39;32.20;;;20.63;;
6306;SDS011;3186;54.062;9.962;2024-03-08T11:52:12;41.00;;;22.30;;
6306;SDS011;3186;54.062;9.962;2024-03-08T11:54:38;34.40;;;21.60;;
6306;SDS011;3186;54.062;9.962;2024-03-08T11:57:05;33.13;;;22.20;;
6306;SDS011;3186;54.062;9.962;2024-03-08T11:59:30;32.43;;;21.10;;
6306;SDS011;3186;54.062;9.962;2024-03-08T12:02:06;35.90;;;22.50;;
6306;SDS011;3186;54.062;9.962;2024-03-08T12:04:36;33.00;;;22.40;;
6306;SDS011;3186;54.062;9.962;2024-03-08T12:07:02;34.33;;;21.30;;
6306;SDS011;3186;54.062;9.962;2024-03-08T12:09:34;32.27;;;22.53;;
6306;SDS011;3186;54.062;9.962;2024-03-08T12:12:01;36.20;;;23.07;;
6306;SDS011;3186;54.062;9.962;2024-03-08T12:14:29;34.47;;;22.50;;
6306;SDS011;3186;54.062;9.962;2024-03-08T12:16:55;35.50;;;22.57;;
6306;SDS011;3186;54.062;9.962;2024-03-08T12:19:20;30.67;;;20.93;;
6306;SDS011;3186;54.062;9.962;2024-03-08T12:21:46;30.10;;;20.63;;
6306;SDS011;3186;54.062;9.962;2024-03-08T12:24:16;30.57;;;21.57;;
6306;SDS011;3186;54.062;9.962;2024-03-08T12:26:45;30.07;;;20.17;;
6306;SDS011;3186;54.062;9.962;2024-03-08T12:31:53;37.27;;;21.63;;
6306;SDS011;3186;54.062;9.962;2024-03-08T12:34:20;33.17;;;21.57;;
6306;SDS011;3186;54.062;9.962;2024-03-08T12:36:50;31.67;;;20.60;;
6306;SDS011;3186;54.062;9.962;2024-03-08T12:39:19;36.80;;;21.60;;
6306;SDS011;3186;54.062;9.962;2024-03-08T12:41:52;30.83;;;20.60;;
6306;SDS011;3186;54.062;9.962;2024-03-08T12:44:19;29.30;;;21.23;;
6306;SDS011;3186;54.062;9.962;2024-03-08T12:46:46;37.27;;;20.67;;
6306;SDS011;3186;54.062;9.962;2024-03-08T12:49:13;31.53;;;20.20;;
6306;SDS011;3186;54.062;9.962;2024-03-08T12:51:45;30.20;;;20.43;;
6306;SDS011;3186;54.062;9.962;2024-03-08T12:54:11;30.00;;;20.53;;
6306;SDS011;3186;54.062;9.962;2024-03-08T12:56:37;34.53;;;21.43;;
6306;SDS011;3186;54.062;9.962;2024-03-08T12:59:03;34.33;;;22.13;;
6306;SDS011;3186;54.062;9.962;2024-03-08T13:01:30;30.10;;;20.43;;
6306;SDS011;3186;54.062;9.962;2024-03-08T13:03:59;35.43;;;21.97;;
6306;SDS011;3186;54.062;9.962;2024-03-08T13:06:28;36.63;;;22.77;;
6306;SDS011;3186;54.062;9.962;2024-03-08T13:08:54;32.50;;;22.40;;
6306;SDS011;3186;54.062;9.962;2024-03-08T13:11:23;36.80;;;21.10;;
6306;SDS011;3186;54.062;9.962;2024-03-08T13:13:52;33.70;;;23.33;;
6306;SDS011;3186;54.062;9.962;2024-03-08T13:16:18;31.60;;;21.07;;
6306;SDS011;3186;54.062;9.962;2024-03-08T13:18:44;33.30;;;22.37;;
6306;SDS011;3186;54.062;9.962;2024-03-08T13:21:13;37.93;;;23.63;;
6306;SDS011;3186;54.062;9.962;2024-03-08T13:23:40;31.87;;;22.03;;
6306;SDS011;3186;54.062;9.962;2024-03-08T13:26:11;35.43;;;22.93;;
6306;SDS011;3186;54.062;9.962;2024-03-08T13:28:43;30.17;;;21.53;;
6306;SDS011;3186;54.062;9.962;2024-03-08T13:31:10;35.63;;;23.53;;
6306;SDS011;3186;54.062;9.962;2024-03-08T13:33:37;35.20;;;23.47;;
6306;SDS011;3186;54.062;9.962;2024-03-08T13:36:07;33.17;;;21.83;;
6306;SDS011;3186;54.062;9.962;2024-03-08T13:38:48;39.37;;;23.83;;
6306;SDS011;3186;54.062;9.962;2024-03-08T13:41:15;34.13;;;23.27;;
6306;SDS011;3186;54.062;9.962;2024-03-08T13:43:42;33.60;;;23.17;;
6306;SDS011;3186;54.062;9.962;2024-03-08T13:46:12;34.07;;;22.73;;
6306;SDS011;3186;54.062;9.962;2024-03-08T13:48:37;36.23;;;24.53;;
6306;SDS011;3186;54.062;9.962;2024-03-08T13:51:07;36.87;;;24.07;;
6306;SDS011;3186;54.062;9.962;2024-03-08T13:53:35;38.53;;;25.80;;
6306;SDS011;3186;54.062;9.962;2024-03-08T13:56:04;35.10;;;24.20;;
6306;SDS011;3186;54.062;9.962;2024-03-08T13:58:30;36.20;;;24.97;;
6306;SDS011;3186;54.062;9.962;2024-03-08T14:00:56;37.97;;;24.20;;
6306;SDS011;3186;54.062;9.962;2024-03-08T14:03:22;36.60;;;26.17;;
6306;SDS011;3186;54.062;9.962;2024-03-08T14:05:49;36.73;;;25.00;;
6306;SDS011;3186;54.062;9.962;2024-03-08T14:08:15;35.43;;;25.90;;
6306;SDS011;3186;54.062;9.962;2024-03-08T14:10:42;38.57;;;27.10;;
6306;SDS011;3186;54.062;9.962;2024-03-08T14:13:15;37.73;;;26.23;;
6306;SDS011;3186;54.062;9.962;2024-03-08T14:15:43;39.10;;;26.00;;
6306;SDS011;3186;54.062;9.962;2024-03-08T14:18:11;38.70;;;26.17;;
6306;SDS011;3186;54.062;9.962;2024-03-08T14:20:38;37.57;;;25.43;;
6306;SDS011;3186;54.062;9.962;2024-03-08T14:23:04;37.37;;;23.90;;
6306;SDS011;3186;54.062;9.962;2024-03-08T14:25:33;37.77;;;25.97;;
6306;SDS011;3186;54.062;9.962;2024-03-08T14:27:58;33.23;;;25.77;;
6306;SDS011;3186;54.062;9.962;2024-03-08T14:30:32;37.57;;;24.67;;
6306;SDS011;3186;54.062;9.962;2024-03-08T14:33:02;35.33;;;24.50;;
6306;SDS011;3186;54.062;9.962;2024-03-08T14:35:34;40.63;;;26.17;;
6306;SDS011;3186;54.062;9.962;2024-03-08T14:38:03;38.30;;;26.53;;
6306;SDS011;3186;54.062;9.962;2024-03-08T14:40:29;38.37;;;26.03;;
6306;SDS011;3186;54.062;9.962;2024-03-08T14:42:55;36.50;;;25.33;;
6306;SDS011;3186;54.062;9.962;2024-03-08T14:45:21;40.10;;;26.63;;
6306;SDS011;3186;54.062;9.962;2024-03-08T14:47:49;43.83;;;28.37;;
6306;SDS011;3186;54.062;9.962;2024-03-08T14:50:18;37.37;;;25.17;;
6306;SDS011;3186;54.062;9.962;2024-03-08T14:52:45;37.80;;;25.93;;
6306;SDS011;3186;54.062;9.962;2024-03-08T14:55:13;41.47;;;26.03;;
6306;SDS011;3186;54.062;9.962;2024-03-08T14:57:45;41.70;;;26.37;;
6306;SDS011;3186;54.062;9.962;2024-03-08T15:00:11;36.87;;;25.27;;
6306;SDS011;3186;54.062;9.962;2024-03-08T15:02:54;39.17;;;26.83;;
6306;SDS011;3186;54.062;9.962;2024-03-08T15:05:24;38.60;;;25.87;;
6306;SDS011;3186;54.062;9.962;2024-03-08T15:07:53;41.73;;;26.60;;